Time,TemperatureF,DewpointF,PressureIn,WindDirection,WindDirectionDegrees,WindSpeedMPH,WindSpeedGustMPH,Humidity,HourlyPrecipIn,Conditions,Clouds,dailyrainin,SolarRadiationWatts/m^2,SoftwareType,DateUTC
2013-02-20 00:00:00,26.7,20.5,29.75,SW,219,2.0,19.0,77,0.00,,,0.01,0,WxPro DR1,2013-02-20 05:00:00,
2013-02-20 00:05:00,26.5,20.6,29.75,West,270,6.0,17.0,78,0.00,,,0.00,0,WxPro DR1,2013-02-20 05:05:00,
2013-02-20 00:10:00,26.5,20.6,29.75,SW,221,7.0,19.0,78,0.00,,,0.00,0,WxPro DR1,2013-02-20 05:10:00,
2013-02-20 00:15:00,26.4,20.5,29.75,SW,214,4.0,19.0,78,0.00,,,0.00,0,WxPro DR1,2013-02-20 05:15:00,
2013-02-20 00:20:00,26.3,20.4,29.75,WNW,287,3.0,13.0,78,0.00,,,0.00,0,WxPro DR1,2013-02-20 05:20:00,
2013-02-20 00:25:00,26.3,20.4,29.75,SSW,198,4.0,13.0,78,0.00,,,0.00,0,WxPro DR1,2013-02-20 05:25:00,
2013-02-20 00:30:00,26.3,20.4,29.75,SSE,159,1.0,15.0,78,0.00,,,0.00,0,WxPro DR1,2013-02-20 05:30:00,
2013-02-20 00:35:00,26.2,20.6,29.75,SSW,211,3.0,17.0,79,0.00,,,0.00,0,WxPro DR1,2013-02-20 05:35:00,
2013-02-20 00:40:00,26.1,20.7,29.75,SW,236,5.0,17.0,80,0.00,,,0.00,0,WxPro DR1,2013-02-20 05:40:00,
2013-02-20 00:45:00,26.0,20.7,29.75,WNW,302,4.0,15.0,80,0.00,,,0.00,0,WxPro DR1,2013-02-20 05:45:00,
2013-02-20 00:50:00,25.9,20.6,29.75,WNW,292,7.0,16.0,80,0.00,,,0.00,0,WxPro DR1,2013-02-20 05:50:00,
2013-02-20 00:55:00,25.7,20.4,29.75,West,262,10.0,16.0,80,0.00,,,0.00,0,WxPro DR1,2013-02-20 05:55:00,
2013-02-20 01:00:00,25.5,20.2,29.76,West,277,6.0,16.0,80,0.00,,,0.00,0,WxPro DR1,2013-02-20 06:00:00,
2013-02-20 01:05:00,25.4,20.1,29.76,SSW,205,9.0,16.0,80,0.00,,,0.00,0,WxPro DR1,2013-02-20 06:05:00,
2013-02-20 01:10:00,25.2,19.6,29.76,WSW,253,4.0,15.0,79,0.00,,,0.00,0,WxPro DR1,2013-02-20 06:10:00,
2013-02-20 01:15:00,25.2,19.9,29.76,WSW,243,0.0,15.0,80,0.00,,,0.00,0,WxPro DR1,2013-02-20 06:15:00,
2013-02-20 01:20:00,25.1,19.8,29.76,West,264,9.0,18.0,80,0.00,,,0.00,0,WxPro DR1,2013-02-20 06:20:00,
2013-02-20 01:25:00,25.0,19.7,29.76,WNW,292,7.0,18.0,80,0.00,,,0.00,0,WxPro DR1,2013-02-20 06:25:00,
2013-02-20 01:30:00,25.0,19.7,29.76,SSW,203,1.0,17.0,80,0.00,,,0.00,0,WxPro DR1,2013-02-20 06:30:00,
2013-02-20 01:35:00,25.0,19.7,29.77,WSW,258,5.0,17.0,80,0.00,,,0.00,0,WxPro DR1,2013-02-20 06:35:00,
2013-02-20 01:40:00,25.0,20.0,29.77,West,267,1.0,13.0,81,0.00,,,0.00,0,WxPro DR1,2013-02-20 06:40:00,
2013-02-20 01:45:00,24.9,20.2,29.77,West,273,4.0,12.0,82,0.00,,,0.00,0,WxPro DR1,2013-02-20 06:45:00,
2013-02-20 01:50:00,24.7,20.6,29.77,SSW,207,0.0,12.0,84,0.00,,,0.00,0,WxPro DR1,2013-02-20 06:50:00,
2013-02-20 01:55:00,24.5,20.7,29.77,SSW,201,2.0,10.0,85,0.00,,,0.00,0,WxPro DR1,2013-02-20 06:55:00,
2013-02-20 02:00:00,24.4,22.4,29.77,SSE,168,2.0,15.0,92,0.00,,,0.00,0,WxPro DR1,2013-02-20 07:00:00,
2013-02-20 02:05:00,24.5,20.3,29.77,SSW,201,3.0,21.0,84,0.00,,,0.00,0,WxPro DR1,2013-02-20 07:05:00,
2013-02-20 02:10:00,24.6,20.1,29.77,West,280,3.0,21.0,83,0.00,,,0.00,0,WxPro DR1,2013-02-20 07:10:00,
2013-02-20 02:15:00,24.6,20.1,29.77,SW,217,7.0,18.0,83,0.00,,,0.00,0,WxPro DR1,2013-02-20 07:15:00,
2013-02-20 02:20:00,24.7,19.7,29.77,WSW,256,13.0,22.0,81,0.00,,,0.00,0,WxPro DR1,2013-02-20 07:20:00,
2013-02-20 02:25:00,24.7,19.7,29.78,West,268,5.0,22.0,81,0.00,,,0.00,0,WxPro DR1,2013-02-20 07:25:00,
2013-02-20 02:30:00,24.7,19.7,29.78,SW,227,18.0,20.0,81,0.00,,,0.00,0,WxPro DR1,2013-02-20 07:30:00,
2013-02-20 02:35:00,24.6,19.6,29.78,WSW,256,1.0,21.0,81,0.00,,,0.00,0,WxPro DR1,2013-02-20 07:35:00,
2013-02-20 02:40:00,24.6,19.4,29.78,West,259,4.0,26.0,80,0.00,,,0.00,0,WxPro DR1,2013-02-20 07:40:00,
2013-02-20 02:45:00,24.7,19.7,29.78,WSW,238,4.0,26.0,81,0.00,,,0.00,0,WxPro DR1,2013-02-20 07:45:00,
2013-02-20 02:50:00,24.7,19.7,29.77,WSW,247,15.0,18.0,81,0.00,,,0.00,0,WxPro DR1,2013-02-20 07:50:00,
2013-02-20 02:55:00,24.7,19.7,29.78,West,269,4.0,18.0,81,0.00,,,0.00,0,WxPro DR1,2013-02-20 07:55:00,
2013-02-20 03:00:00,24.6,19.6,29.78,WSW,242,7.0,18.0,81,0.00,,,0.00,0,WxPro DR1,2013-02-20 08:00:00,
2013-02-20 03:05:00,24.5,19.5,29.78,SW,221,5.0,20.0,81,0.00,,,0.00,0,WxPro DR1,2013-02-20 08:05:00,
2013-02-20 03:10:00,24.4,19.4,29.78,West,281,5.0,22.0,81,0.00,,,0.00,0,WxPro DR1,2013-02-20 08:10:00,
2013-02-20 03:15:00,24.2,19.6,29.78,WSW,255,0.0,22.0,82,0.00,,,0.00,0,WxPro DR1,2013-02-20 08:15:00,
2013-02-20 03:20:00,24.2,19.8,29.78,SW,229,5.0,17.0,83,0.00,,,0.00,0,WxPro DR1,2013-02-20 08:20:00,
2013-02-20 03:25:00,24.1,19.7,29.78,West,266,1.0,15.0,83,0.00,,,0.00,0,WxPro DR1,2013-02-20 08:25:00,
2013-02-20 03:30:00,23.9,19.5,29.78,West,261,12.0,16.0,83,0.00,,,0.00,0,WxPro DR1,2013-02-20 08:30:00,
2013-02-20 03:35:00,23.8,19.3,29.79,West,275,9.0,18.0,83,0.00,,,0.00,0,WxPro DR1,2013-02-20 08:35:00,
2013-02-20 03:40:00,23.7,18.5,29.79,West,266,12.0,20.0,80,0.00,,,0.00,0,WxPro DR1,2013-02-20 08:40:00,
2013-02-20 03:45:00,23.7,18.1,29.79,WNW,292,2.0,20.0,79,0.00,,,0.00,0,WxPro DR1,2013-02-20 08:45:00,
2013-02-20 03:50:00,23.7,17.9,29.79,West,264,10.0,20.0,78,0.00,,,0.00,0,WxPro DR1,2013-02-20 08:50:00,
2013-02-20 03:55:00,23.7,17.6,29.79,West,277,4.0,15.0,77,0.00,,,0.00,0,WxPro DR1,2013-02-20 08:55:00,
2013-02-20 04:00:00,23.7,17.3,29.79,West,262,6.0,15.0,76,0.00,,,0.00,0,WxPro DR1,2013-02-20 09:00:00,
2013-02-20 04:05:00,23.7,17.5,29.79,WSW,255,9.0,16.0,77,0.00,,,0.00,0,WxPro DR1,2013-02-20 09:05:00,
2013-02-20 04:10:00,23.6,17.5,29.79,SSW,195,3.0,16.0,77,0.00,,,0.00,0,WxPro DR1,2013-02-20 09:10:00,
2013-02-20 04:15:00,23.5,17.7,29.79,WNW,287,13.0,15.0,78,0.00,,,0.00,0,WxPro DR1,2013-02-20 09:15:00,
2013-02-20 04:20:00,23.4,17.9,29.80,SSW,209,3.0,20.0,79,0.00,,,0.00,0,WxPro DR1,2013-02-20 09:20:00,
2013-02-20 04:25:00,23.3,17.8,29.79,West,268,4.0,20.0,79,0.00,,,0.00,0,WxPro DR1,2013-02-20 09:25:00,
2013-02-20 04:30:00,23.1,17.3,29.79,WNW,290,9.0,16.0,78,0.00,,,0.00,0,WxPro DR1,2013-02-20 09:30:00,
2013-02-20 04:35:00,23.0,17.5,29.80,SW,229,3.0,16.0,79,0.00,,,0.00,0,WxPro DR1,2013-02-20 09:35:00,
2013-02-20 04:40:00,22.9,17.4,29.80,SW,219,4.0,14.0,79,0.00,,,0.00,0,WxPro DR1,2013-02-20 09:40:00,
2013-02-20 04:45:00,22.7,17.2,29.80,WNW,284,0.0,14.0,79,0.00,,,0.00,0,WxPro DR1,2013-02-20 09:45:00,
2013-02-20 04:50:00,22.6,17.1,29.80,SW,226,6.0,12.0,79,0.00,,,0.00,0,WxPro DR1,2013-02-20 09:50:00,
2013-02-20 04:55:00,22.6,17.1,29.80,West,272,3.0,11.0,79,0.00,,,0.00,0,WxPro DR1,2013-02-20 09:55:00,
2013-02-20 05:00:00,22.6,17.1,29.80,WSW,245,15.0,15.0,79,0.00,,,0.00,0,WxPro DR1,2013-02-20 10:00:00,
2013-02-20 05:05:00,22.5,17.0,29.80,WNW,286,5.0,16.0,79,0.00,,,0.00,0,WxPro DR1,2013-02-20 10:05:00,
2013-02-20 05:10:00,22.4,16.5,29.80,West,273,4.0,16.0,78,0.00,,,0.00,0,WxPro DR1,2013-02-20 10:10:00,
2013-02-20 05:15:00,22.3,16.5,29.80,WNW,300,4.0,14.0,78,0.00,,,0.00,0,WxPro DR1,2013-02-20 10:15:00,
2013-02-20 05:20:00,22.2,16.1,29.81,WSW,253,0.0,16.0,77,0.00,,,0.00,0,WxPro DR1,2013-02-20 10:20:00,
2013-02-20 05:25:00,22.2,15.8,29.81,WNW,298,10.0,20.0,76,0.00,,,0.00,0,WxPro DR1,2013-02-20 10:25:00,
2013-02-20 05:30:00,22.0,15.9,29.81,North,356,11.0,21.0,77,0.00,,,0.00,0,WxPro DR1,2013-02-20 10:30:00,
2013-02-20 05:35:00,21.8,15.9,29.81,West,271,7.0,21.0,78,0.00,,,0.00,0,WxPro DR1,2013-02-20 10:35:00,
2013-02-20 05:40:00,21.6,15.9,29.81,SW,225,4.0,19.0,78,0.00,,,0.00,0,WxPro DR1,2013-02-20 10:40:00,
2013-02-20 05:45:00,21.5,16.1,29.81,WNW,286,3.0,18.0,79,0.00,,,0.00,0,WxPro DR1,2013-02-20 10:45:00,
2013-02-20 05:50:00,21.5,16.0,29.82,WNW,299,9.0,14.0,79,0.00,,,0.00,0,WxPro DR1,2013-02-20 10:50:00,
2013-02-20 05:55:00,21.3,16.1,29.82,WNW,282,10.0,16.0,80,0.00,,,0.00,0,WxPro DR1,2013-02-20 10:55:00,
2013-02-20 06:00:00,21.2,16.0,29.82,West,264,7.0,18.0,80,0.00,,,0.00,0,WxPro DR1,2013-02-20 11:00:00,
2013-02-20 06:05:00,21.1,15.9,29.82,West,268,9.0,18.0,80,0.00,,,0.00,0,WxPro DR1,2013-02-20 11:05:00,
2013-02-20 06:10:00,21.0,15.8,29.82,WSW,255,1.0,17.0,80,0.00,,,0.00,0,WxPro DR1,2013-02-20 11:10:00,
2013-02-20 06:15:00,20.9,15.5,29.82,SW,235,3.0,17.0,79,0.00,,,0.00,0,WxPro DR1,2013-02-20 11:15:00,
2013-02-20 06:20:00,20.9,15.4,29.82,WSW,238,5.0,17.0,79,0.00,,,0.00,0,WxPro DR1,2013-02-20 11:20:00,
2013-02-20 06:25:00,20.9,15.1,29.82,WSW,250,12.0,17.0,78,0.00,,,0.00,0,WxPro DR1,2013-02-20 11:25:00,
2013-02-20 06:30:00,21.0,14.9,29.82,West,271,1.0,21.0,77,0.00,,,0.00,0,WxPro DR1,2013-02-20 11:30:00,
2013-02-20 06:35:00,21.0,14.9,29.82,SW,232,6.0,21.0,77,0.00,,,0.00,0,WxPro DR1,2013-02-20 11:35:00,
2013-02-20 06:40:00,20.9,14.9,29.82,WNW,284,12.0,15.0,77,0.00,,,0.00,0,WxPro DR1,2013-02-20 11:40:00,
2013-02-20 06:45:00,20.9,15.1,29.83,WNW,286,5.0,17.0,78,0.00,,,0.00,0,WxPro DR1,2013-02-20 11:45:00,
2013-02-20 06:50:00,20.9,15.1,29.83,WNW,294,5.0,17.0,78,0.00,,,0.00,0,WxPro DR1,2013-02-20 11:50:00,
2013-02-20 06:55:00,20.8,15.1,29.83,WSW,253,3.0,14.0,78,0.00,,,0.00,0,WxPro DR1,2013-02-20 11:55:00,
2013-02-20 07:00:00,20.8,15.3,29.83,WNW,286,7.0,19.0,79,0.00,,,0.00,0,WxPro DR1,2013-02-20 12:00:00,
2013-02-20 07:05:00,20.7,15.3,29.83,West,264,5.0,23.0,79,0.00,,,0.00,0,WxPro DR1,2013-02-20 12:05:00,
2013-02-20 07:10:00,20.7,15.3,29.83,NW,309,5.0,23.0,79,0.00,,,0.00,0,WxPro DR1,2013-02-20 12:10:00,
2013-02-20 07:15:00,20.8,15.6,29.84,WSW,257,5.0,19.0,80,0.00,,,0.00,5,WxPro DR1,2013-02-20 12:15:00,
2013-02-20 07:20:00,20.8,15.6,29.84,WSW,257,6.0,17.0,80,0.00,,,0.00,9,WxPro DR1,2013-02-20 12:20:00,
2013-02-20 07:25:00,20.8,15.6,29.84,West,270,5.0,17.0,80,0.00,,,0.00,18,WxPro DR1,2013-02-20 12:25:00,
2013-02-20 07:30:00,20.8,15.6,29.84,South,185,5.0,17.0,80,0.00,,,0.00,21,WxPro DR1,2013-02-20 12:30:00,
2013-02-20 07:35:00,20.9,15.7,29.85,WNW,291,6.0,13.0,80,0.00,,,0.00,30,WxPro DR1,2013-02-20 12:35:00,
2013-02-20 07:40:00,20.9,15.9,29.85,WSW,240,7.0,13.0,81,0.00,,,0.00,32,WxPro DR1,2013-02-20 12:40:00,
2013-02-20 07:45:00,20.9,15.9,29.85,West,276,8.0,13.0,81,0.00,,,0.00,35,WxPro DR1,2013-02-20 12:45:00,
2013-02-20 07:50:00,20.9,16.0,29.85,WSW,247,4.0,18.0,81,0.00,,,0.00,40,WxPro DR1,2013-02-20 12:50:00,
2013-02-20 07:55:00,20.9,16.0,29.85,SW,235,2.0,18.0,81,0.00,,,0.00,47,WxPro DR1,2013-02-20 12:55:00,
2013-02-20 08:00:00,20.8,15.9,29.85,West,277,3.0,19.0,81,0.00,,,0.00,49,WxPro DR1,2013-02-20 13:00:00,
2013-02-20 08:05:00,20.8,15.9,29.85,WNW,287,0.0,19.0,81,0.00,,,0.00,46,WxPro DR1,2013-02-20 13:05:00,
2013-02-20 08:10:00,20.9,16.0,29.85,WNW,290,6.0,18.0,81,0.00,,,0.00,51,WxPro DR1,2013-02-20 13:10:00,
2013-02-20 08:15:00,20.9,16.0,29.86,WSW,245,5.0,18.0,81,0.00,,,0.00,69,WxPro DR1,2013-02-20 13:15:00,
2013-02-20 08:20:00,20.9,16.0,29.86,West,275,7.0,16.0,81,0.00,,,0.00,70,WxPro DR1,2013-02-20 13:20:00,
2013-02-20 08:25:00,21.0,16.1,29.86,West,280,0.0,21.0,81,0.00,,,0.00,69,WxPro DR1,2013-02-20 13:25:00,
2013-02-20 08:30:00,21.0,16.1,29.86,West,275,4.0,21.0,81,0.00,,,0.00,81,WxPro DR1,2013-02-20 13:30:00,
2013-02-20 08:35:00,21.2,16.3,29.86,West,269,2.0,14.0,81,0.00,,,0.00,120,WxPro DR1,2013-02-20 13:35:00,
2013-02-20 08:40:00,21.2,16.6,29.86,WSW,257,5.0,15.0,82,0.00,,,0.00,97,WxPro DR1,2013-02-20 13:40:00,
2013-02-20 08:45:00,21.2,16.9,29.86,SSW,207,5.0,15.0,83,0.00,,,0.00,114,WxPro DR1,2013-02-20 13:45:00,
2013-02-20 08:50:00,21.2,16.8,29.85,WSW,252,6.0,14.0,83,0.00,,,0.00,134,WxPro DR1,2013-02-20 13:50:00,
2013-02-20 08:55:00,21.4,16.5,29.85,WSW,245,13.0,18.0,81,0.00,,,0.00,172,WxPro DR1,2013-02-20 13:55:00,
2013-02-20 09:00:00,21.6,16.4,29.86,WSW,244,3.0,18.0,80,0.00,,,0.00,190,WxPro DR1,2013-02-20 14:00:00,
2013-02-20 09:05:00,22.0,16.2,29.86,WNW,300,10.0,14.0,78,0.00,,,0.00,176,WxPro DR1,2013-02-20 14:05:00,
2013-02-20 09:10:00,22.1,15.7,29.85,SW,215,11.0,17.0,76,0.00,,,0.00,200,WxPro DR1,2013-02-20 14:10:00,
2013-02-20 09:15:00,22.3,15.2,29.85,WSW,245,8.0,21.0,74,0.00,,,0.00,239,WxPro DR1,2013-02-20 14:15:00,
2013-02-20 09:20:00,22.3,14.7,29.86,WSW,255,7.0,21.0,72,0.00,,,0.00,200,WxPro DR1,2013-02-20 14:20:00,
2013-02-20 09:25:00,22.3,14.7,29.86,WNW,287,17.0,22.0,72,0.00,,,0.00,227,WxPro DR1,2013-02-20 14:25:00,
2013-02-20 09:30:00,22.3,14.4,29.86,West,275,5.0,25.0,71,0.00,,,0.00,213,WxPro DR1,2013-02-20 14:30:00,
2013-02-20 09:35:00,22.4,14.4,29.86,West,264,5.0,25.0,71,0.00,,,0.00,239,WxPro DR1,2013-02-20 14:35:00,
2013-02-20 09:40:00,22.5,14.2,29.86,WNW,292,11.0,25.0,70,0.00,,,0.00,241,WxPro DR1,2013-02-20 14:40:00,
2013-02-20 09:45:00,22.5,14.2,29.86,WSW,249,13.0,25.0,70,0.00,,,0.00,183,WxPro DR1,2013-02-20 14:45:00,
2013-02-20 09:50:00,22.6,14.0,29.85,West,263,2.0,22.0,69,0.00,,,0.00,272,WxPro DR1,2013-02-20 14:50:00,
2013-02-20 09:55:00,22.7,13.6,29.86,West,272,23.0,30.0,68,0.00,,,0.00,118,WxPro DR1,2013-02-20 14:55:00,
2013-02-20 10:00:00,22.6,13.3,29.85,WSW,243,6.0,30.0,67,0.00,,,0.00,262,WxPro DR1,2013-02-20 15:00:00,
2013-02-20 10:05:00,22.9,13.2,29.86,SW,215,12.0,23.0,66,0.00,,,0.00,250,WxPro DR1,2013-02-20 15:05:00,
2013-02-20 10:10:00,23.0,13.1,29.86,West,271,15.0,26.0,65,0.00,,,0.00,243,WxPro DR1,2013-02-20 15:10:00,
2013-02-20 10:15:00,23.1,13.1,29.86,West,269,9.0,26.0,65,0.00,,,0.00,207,WxPro DR1,2013-02-20 15:15:00,
2013-02-20 10:20:00,23.2,13.3,29.86,West,272,9.0,25.0,65,0.00,,,0.00,206,WxPro DR1,2013-02-20 15:20:00,
2013-02-20 10:25:00,23.1,13.1,29.86,NW,307,5.0,22.0,65,0.00,,,0.00,165,WxPro DR1,2013-02-20 15:25:00,
2013-02-20 10:30:00,23.0,13.0,29.86,NW,305,5.0,27.0,65,0.00,,,0.00,288,WxPro DR1,2013-02-20 15:30:00,
2013-02-20 10:35:00,23.1,12.8,29.86,West,279,4.0,27.0,64,0.00,,,0.00,232,WxPro DR1,2013-02-20 15:35:00,
2013-02-20 10:40:00,23.4,13.1,29.87,SW,228,5.0,27.0,64,0.00,,,0.00,216,WxPro DR1,2013-02-20 15:40:00,
2013-02-20 10:45:00,23.2,13.2,29.87,SW,236,5.0,27.0,65,0.00,,,0.00,223,WxPro DR1,2013-02-20 15:45:00,
2013-02-20 10:50:00,23.2,13.4,29.87,WSW,252,12.0,21.0,66,0.00,,,0.00,258,WxPro DR1,2013-02-20 15:50:00,
2013-02-20 10:55:00,23.3,13.3,29.87,West,263,7.0,25.0,65,0.00,,,0.00,204,WxPro DR1,2013-02-20 15:55:00,
2013-02-20 11:00:00,23.1,13.5,29.87,WSW,246,6.0,25.0,66,0.00,,,0.00,271,WxPro DR1,2013-02-20 16:00:00,
2013-02-20 11:05:00,23.1,13.8,29.87,West,272,15.0,23.0,67,0.00,,,0.00,311,WxPro DR1,2013-02-20 16:05:00,
2013-02-20 11:10:00,23.1,14.1,29.88,SW,220,3.0,22.0,68,0.00,,,0.00,380,WxPro DR1,2013-02-20 16:10:00,
2013-02-20 11:15:00,23.4,14.1,29.87,WSW,249,5.0,22.0,67,0.00,,,0.00,408,WxPro DR1,2013-02-20 16:15:00,
2013-02-20 11:20:00,23.6,14.0,29.87,WSW,250,14.0,24.0,66,0.00,,,0.00,466,WxPro DR1,2013-02-20 16:20:00,
2013-02-20 11:25:00,23.6,13.9,29.87,West,263,4.0,24.0,66,0.00,,,0.00,297,WxPro DR1,2013-02-20 16:25:00,
2013-02-20 11:30:00,23.7,14.4,29.88,WSW,254,10.0,28.0,67,0.00,,,0.00,338,WxPro DR1,2013-02-20 16:30:00,
2013-02-20 11:35:00,23.3,13.9,29.88,WNW,284,10.0,28.0,67,0.00,,,0.00,355,WxPro DR1,2013-02-20 16:35:00,
2013-02-20 11:40:00,23.4,14.1,29.88,WSW,253,10.0,23.0,67,0.00,,,0.00,287,WxPro DR1,2013-02-20 16:40:00,
2013-02-20 11:45:00,23.5,14.5,29.88,WSW,257,9.0,26.0,68,0.00,,,0.00,369,WxPro DR1,2013-02-20 16:45:00,
2013-02-20 11:50:00,23.6,14.2,29.88,SW,230,11.0,26.0,67,0.00,,,0.00,425,WxPro DR1,2013-02-20 16:50:00,
2013-02-20 11:55:00,23.7,14.3,29.88,WSW,257,7.0,23.0,67,0.00,,,0.00,332,WxPro DR1,2013-02-20 16:55:00,
2013-02-20 12:00:00,24.0,14.0,29.89,WSW,248,14.0,20.0,65,0.00,,,0.00,334,WxPro DR1,2013-02-20 17:00:00,
2013-02-20 12:05:00,24.0,13.6,29.88,SW,230,5.0,19.0,64,0.00,,,0.00,417,WxPro DR1,2013-02-20 17:05:00,
2013-02-20 12:10:00,23.8,13.8,29.88,SSW,211,9.0,20.0,65,0.00,,,0.00,260,WxPro DR1,2013-02-20 17:10:00,
2013-02-20 12:15:00,23.5,14.2,29.88,West,266,11.0,24.0,67,0.00,,,0.00,287,WxPro DR1,2013-02-20 17:15:00,
2013-02-20 12:20:00,23.6,13.9,29.88,WSW,248,6.0,24.0,66,0.00,,,0.00,257,WxPro DR1,2013-02-20 17:20:00,
2013-02-20 12:25:00,23.6,13.6,29.88,West,261,15.0,21.0,65,0.00,,,0.00,236,WxPro DR1,2013-02-20 17:25:00,
2013-02-20 12:30:00,23.5,13.4,29.88,SW,230,6.0,23.0,65,0.00,,,0.00,269,WxPro DR1,2013-02-20 17:30:00,
2013-02-20 12:35:00,23.8,13.4,29.89,SW,218,6.0,27.0,64,0.00,,,0.00,236,WxPro DR1,2013-02-20 17:35:00,
2013-02-20 12:40:00,23.9,13.5,29.89,WNW,302,5.0,27.0,64,0.00,,,0.00,207,WxPro DR1,2013-02-20 17:40:00,
2013-02-20 12:45:00,24.0,13.6,29.89,WSW,240,12.0,22.0,64,0.00,,,0.00,255,WxPro DR1,2013-02-20 17:45:00,
2013-02-20 12:50:00,24.2,13.4,29.89,West,275,4.0,22.0,63,0.00,,,0.00,258,WxPro DR1,2013-02-20 17:50:00,
2013-02-20 12:55:00,24.0,12.9,29.89,SW,222,10.0,22.0,62,0.00,,,0.00,232,WxPro DR1,2013-02-20 17:55:00,
2013-02-20 13:00:00,23.9,13.1,29.89,WSW,245,10.0,22.0,63,0.00,,,0.00,244,WxPro DR1,2013-02-20 18:00:00,
2013-02-20 13:05:00,23.9,13.1,29.89,WNW,298,14.0,23.0,63,0.00,,,0.00,227,WxPro DR1,2013-02-20 18:05:00,
2013-02-20 13:10:00,23.7,13.3,29.89,NW,308,12.0,23.0,64,0.00,,,0.00,311,WxPro DR1,2013-02-20 18:10:00,
2013-02-20 13:15:00,23.8,13.6,29.89,West,270,12.0,22.0,65,0.00,,,0.00,301,WxPro DR1,2013-02-20 18:15:00,
2013-02-20 13:20:00,23.8,13.4,29.90,SW,222,4.0,25.0,64,0.00,,,0.00,330,WxPro DR1,2013-02-20 18:20:00,
2013-02-20 13:25:00,23.9,13.9,29.90,SW,216,6.0,25.0,65,0.00,,,0.00,309,WxPro DR1,2013-02-20 18:25:00,
2013-02-20 13:30:00,24.3,14.6,29.90,WNW,296,5.0,23.0,66,0.00,,,0.00,330,WxPro DR1,2013-02-20 18:30:00,
2013-02-20 13:35:00,24.4,15.0,29.90,SW,230,10.0,21.0,67,0.00,,,0.00,221,WxPro DR1,2013-02-20 18:35:00,
2013-02-20 13:40:00,24.1,14.7,29.90,NW,310,3.0,18.0,67,0.00,,,0.00,190,WxPro DR1,2013-02-20 18:40:00,
2013-02-20 13:45:00,23.7,14.7,29.91,North,351,5.0,21.0,68,0.00,,,0.00,301,WxPro DR1,2013-02-20 18:45:00,
2013-02-20 13:50:00,23.4,14.4,29.91,West,267,6.0,24.0,68,0.00,,,0.00,522,WxPro DR1,2013-02-20 18:50:00,
2013-02-20 13:55:00,24.1,15.1,29.91,SW,215,4.0,24.0,68,0.00,,,0.00,376,WxPro DR1,2013-02-20 18:55:00,
2013-02-20 14:00:00,24.6,14.9,29.91,SW,225,5.0,19.0,66,0.00,,,0.00,269,WxPro DR1,2013-02-20 19:00:00,
2013-02-20 14:05:00,24.4,14.7,29.91,WSW,256,11.0,19.0,66,0.00,,,0.00,244,WxPro DR1,2013-02-20 19:05:00,
2013-02-20 14:10:00,24.3,14.6,29.91,West,271,4.0,23.0,66,0.00,,,0.00,241,WxPro DR1,2013-02-20 19:10:00,
2013-02-20 14:15:00,24.1,15.1,29.91,West,261,6.0,23.0,68,0.00,,,0.00,260,WxPro DR1,2013-02-20 19:15:00,
2013-02-20 14:20:00,24.0,14.7,29.91,West,266,6.0,26.0,67,0.00,,,0.00,260,WxPro DR1,2013-02-20 19:20:00,
2013-02-20 14:25:00,24.0,14.5,29.91,WNW,288,11.0,26.0,67,0.00,,,0.00,285,WxPro DR1,2013-02-20 19:25:00,
2013-02-20 14:30:00,24.0,14.9,29.92,WNW,294,10.0,22.0,68,0.00,,,0.00,192,WxPro DR1,2013-02-20 19:30:00,
2013-02-20 14:35:00,24.3,15.6,29.92,WSW,256,15.0,18.0,69,0.00,,,0.00,281,WxPro DR1,2013-02-20 19:35:00,
2013-02-20 14:40:00,24.4,15.4,29.92,SW,225,7.0,20.0,68,0.00,,,0.00,364,WxPro DR1,2013-02-20 19:40:00,
2013-02-20 14:45:00,24.4,15.4,29.92,SW,234,7.0,25.0,68,0.00,,,0.00,244,WxPro DR1,2013-02-20 19:45:00,
2013-02-20 14:50:00,24.3,15.8,29.92,WSW,254,20.0,25.0,70,0.00,,,0.00,267,WxPro DR1,2013-02-20 19:50:00,
2013-02-20 14:55:00,24.2,15.6,29.93,West,267,9.0,22.0,69,0.00,,,0.00,264,WxPro DR1,2013-02-20 19:55:00,
2013-02-20 15:00:00,24.1,16.1,29.93,SW,234,9.0,22.0,71,0.00,,,0.00,380,WxPro DR1,2013-02-20 20:00:00,
2013-02-20 15:05:00,24.3,16.0,29.93,SW,217,7.0,21.0,70,0.00,,,0.00,295,WxPro DR1,2013-02-20 20:05:00,
2013-02-20 15:10:00,24.2,15.8,29.93,WSW,244,9.0,21.0,70,0.00,,,0.00,199,WxPro DR1,2013-02-20 20:10:00,
2013-02-20 15:15:00,23.9,15.8,29.93,WSW,247,6.0,23.0,71,0.00,,,0.00,214,WxPro DR1,2013-02-20 20:15:00,
2013-02-20 15:20:00,23.9,15.8,29.94,WSW,242,3.0,23.0,71,0.00,,,0.00,213,WxPro DR1,2013-02-20 20:20:00,
2013-02-20 15:25:00,24.0,16.5,29.94,WNW,298,14.0,24.0,73,0.00,,,0.00,183,WxPro DR1,2013-02-20 20:25:00,
2013-02-20 15:30:00,23.7,15.7,29.95,WNW,282,15.0,26.0,71,0.00,,,0.00,162,WxPro DR1,2013-02-20 20:30:00,
2013-02-20 15:35:00,23.6,15.9,29.95,WSW,250,16.0,26.0,72,0.00,,,0.00,167,WxPro DR1,2013-02-20 20:35:00,
2013-02-20 15:40:00,23.5,15.8,29.95,WNW,287,11.0,24.0,72,0.00,,,0.00,155,WxPro DR1,2013-02-20 20:40:00,
2013-02-20 15:45:00,23.3,15.7,29.95,WSW,246,7.0,28.0,72,0.00,,,0.00,165,WxPro DR1,2013-02-20 20:45:00,
2013-02-20 15:50:00,23.4,16.0,29.95,WSW,238,4.0,28.0,73,0.00,,,0.00,163,WxPro DR1,2013-02-20 20:50:00,
2013-02-20 15:55:00,23.5,15.9,29.95,SW,225,5.0,19.0,72,0.00,,,0.00,142,WxPro DR1,2013-02-20 20:55:00,
2013-02-20 16:00:00,23.6,15.8,29.96,WSW,238,10.0,24.0,72,0.00,,,0.00,141,WxPro DR1,2013-02-20 21:00:00,
2013-02-20 16:05:00,23.5,15.5,29.96,WNW,303,6.0,24.0,71,0.00,,,0.00,104,WxPro DR1,2013-02-20 21:05:00,
2013-02-20 16:10:00,23.6,15.6,29.95,WNW,282,4.0,21.0,71,0.00,,,0.00,86,WxPro DR1,2013-02-20 21:10:00,
2013-02-20 16:15:00,23.8,15.4,29.96,WSW,240,2.0,19.0,70,0.00,,,0.00,81,WxPro DR1,2013-02-20 21:15:00,
2013-02-20 16:20:00,23.8,15.5,29.95,WSW,252,3.0,22.0,70,0.00,,,0.00,76,WxPro DR1,2013-02-20 21:20:00,
2013-02-20 16:25:00,23.7,15.4,29.96,SW,223,1.0,22.0,70,0.00,,,0.00,51,WxPro DR1,2013-02-20 21:25:00,
2013-02-20 16:30:00,23.6,15.3,29.96,WSW,248,4.0,21.0,70,0.00,,,0.00,42,WxPro DR1,2013-02-20 21:30:00,
2013-02-20 16:35:00,23.4,15.4,29.97,WNW,296,9.0,22.0,71,0.00,,,0.00,46,WxPro DR1,2013-02-20 21:35:00,
2013-02-20 16:40:00,23.3,15.2,29.97,WSW,253,15.0,23.0,71,0.00,,,0.00,39,WxPro DR1,2013-02-20 21:40:00,
2013-02-20 16:45:00,23.2,15.0,29.97,West,263,10.0,25.0,70,0.00,,,0.00,40,WxPro DR1,2013-02-20 21:45:00,
2013-02-20 16:50:00,23.2,15.2,29.97,WSW,242,3.0,25.0,71,0.00,,,0.00,33,WxPro DR1,2013-02-20 21:50:00,
2013-02-20 16:55:00,23.2,15.2,29.97,West,275,16.0,21.0,71,0.00,,,0.00,23,WxPro DR1,2013-02-20 21:55:00,
2013-02-20 17:00:00,23.0,15.4,29.98,WSW,257,3.0,22.0,72,0.00,,,0.00,21,WxPro DR1,2013-02-20 22:00:00,
2013-02-20 17:05:00,22.9,15.2,29.98,WSW,252,6.0,22.0,72,0.00,,,0.00,19,WxPro DR1,2013-02-20 22:05:00,
2013-02-20 17:10:00,22.9,15.6,29.98,WSW,253,7.0,19.0,73,0.00,,,0.00,16,WxPro DR1,2013-02-20 22:10:00,
2013-02-20 17:15:00,22.9,15.6,29.99,WSW,238,1.0,19.0,73,0.00,,,0.00,12,WxPro DR1,2013-02-20 22:15:00,
2013-02-20 17:20:00,22.8,15.8,29.99,SSW,196,4.0,20.0,74,0.00,,,0.00,11,WxPro DR1,2013-02-20 22:20:00,
2013-02-20 17:25:00,22.7,15.7,30.00,WSW,242,12.0,22.0,74,0.00,,,0.00,7,WxPro DR1,2013-02-20 22:25:00,
2013-02-20 17:30:00,22.6,15.6,30.00,South,176,2.0,24.0,74,0.00,,,0.00,5,WxPro DR1,2013-02-20 22:30:00,
2013-02-20 17:35:00,22.6,15.6,29.99,SW,226,11.0,24.0,74,0.00,,,0.00,5,WxPro DR1,2013-02-20 22:35:00,
2013-02-20 17:40:00,22.6,15.6,29.98,West,266,6.0,22.0,74,0.00,,,0.00,0,WxPro DR1,2013-02-20 22:40:00,
2013-02-20 17:45:00,22.5,15.5,29.98,West,271,7.0,22.0,74,0.00,,,0.00,0,WxPro DR1,2013-02-20 22:45:00,
2013-02-20 17:50:00,22.5,15.6,29.98,WSW,240,7.0,19.0,74,0.00,,,0.00,0,WxPro DR1,2013-02-20 22:50:00,
2013-02-20 17:55:00,22.5,15.5,29.98,WNW,286,5.0,19.0,74,0.00,,,0.00,0,WxPro DR1,2013-02-20 22:55:00,
2013-02-20 18:00:00,22.5,15.7,29.99,WSW,240,5.0,20.0,75,0.00,,,0.00,0,WxPro DR1,2013-02-20 23:00:00,
2013-02-20 18:05:00,22.5,15.5,30.00,West,279,3.0,20.0,74,0.00,,,0.00,0,WxPro DR1,2013-02-20 23:05:00,
2013-02-20 18:10:00,22.5,15.5,30.00,West,260,3.0,18.0,74,0.00,,,0.00,0,WxPro DR1,2013-02-20 23:10:00,
2013-02-20 18:15:00,22.4,15.4,30.00,WSW,255,8.0,24.0,74,0.00,,,0.00,0,WxPro DR1,2013-02-20 23:15:00,
2013-02-20 18:20:00,22.3,15.6,30.00,WSW,253,6.0,24.0,75,0.00,,,0.00,0,WxPro DR1,2013-02-20 23:20:00,
2013-02-20 18:25:00,22.2,15.2,30.01,WSW,244,5.0,19.0,74,0.00,,,0.00,0,WxPro DR1,2013-02-20 23:25:00,
2013-02-20 18:30:00,22.2,15.2,30.01,SSW,206,4.0,19.0,74,0.00,,,0.00,0,WxPro DR1,2013-02-20 23:30:00,
2013-02-20 18:35:00,22.3,15.6,30.01,WSW,247,2.0,18.0,75,0.00,,,0.00,0,WxPro DR1,2013-02-20 23:35:00,
2013-02-20 18:40:00,22.3,15.6,30.02,West,270,6.0,21.0,75,0.00,,,0.00,0,WxPro DR1,2013-02-20 23:40:00,
2013-02-20 18:45:00,22.2,15.2,30.02,WSW,250,2.0,21.0,74,0.00,,,0.00,0,WxPro DR1,2013-02-20 23:45:00,
2013-02-20 18:50:00,22.1,15.1,30.02,SSW,206,13.0,20.0,74,0.00,,,0.00,0,WxPro DR1,2013-02-20 23:50:00,
2013-02-20 18:55:00,22.1,14.8,30.02,West,270,3.0,21.0,73,0.00,,,0.00,0,WxPro DR1,2013-02-20 23:55:00,
2013-02-20 19:00:00,22.1,14.8,30.03,WSW,240,6.0,21.0,73,0.00,,,0.00,0,WxPro DR1,2013-02-21 00:00:00,
2013-02-20 19:05:00,22.1,14.8,30.03,WSW,249,19.0,23.0,73,0.00,,,0.00,0,WxPro DR1,2013-02-21 00:05:00,
2013-02-20 19:10:00,22.0,14.4,30.03,West,269,12.0,27.0,72,0.00,,,0.00,0,WxPro DR1,2013-02-21 00:10:00,
2013-02-20 19:15:00,21.8,14.5,30.03,SW,234,4.0,27.0,73,0.00,,,0.00,0,WxPro DR1,2013-02-21 00:15:00,
2013-02-20 19:20:00,21.8,14.5,30.03,WSW,254,9.0,22.0,73,0.00,,,0.00,0,WxPro DR1,2013-02-21 00:20:00,
2013-02-20 19:25:00,21.8,14.5,30.02,WNW,282,6.0,22.0,73,0.00,,,0.00,0,WxPro DR1,2013-02-21 00:25:00,
2013-02-20 19:30:00,21.8,14.5,30.02,WNW,298,8.0,18.0,73,0.00,,,0.00,0,WxPro DR1,2013-02-21 00:30:00,
2013-02-20 19:35:00,21.8,14.2,30.03,WNW,303,5.0,18.0,72,0.00,,,0.00,0,WxPro DR1,2013-02-21 00:35:00,
2013-02-20 19:40:00,21.8,14.1,30.03,West,268,10.0,21.0,72,0.00,,,0.00,0,WxPro DR1,2013-02-21 00:40:00,
2013-02-20 19:45:00,21.7,13.8,30.03,SW,226,9.0,28.0,71,0.00,,,0.00,0,WxPro DR1,2013-02-21 00:45:00,
2013-02-20 19:50:00,21.7,13.8,30.03,WNW,287,15.0,28.0,71,0.00,,,0.00,0,WxPro DR1,2013-02-21 00:50:00,
2013-02-20 19:55:00,21.7,13.8,30.03,NW,306,11.0,22.0,71,0.00,,,0.00,0,WxPro DR1,2013-02-21 00:55:00,
2013-02-20 20:00:00,21.6,13.7,30.03,West,263,20.0,23.0,71,0.00,,,0.00,0,WxPro DR1,2013-02-21 01:00:00,
2013-02-20 20:05:00,21.6,13.4,30.03,West,262,2.0,23.0,70,0.00,,,0.00,0,WxPro DR1,2013-02-21 01:05:00,
2013-02-20 20:10:00,21.6,13.7,30.03,West,271,6.0,23.0,71,0.00,,,0.00,0,WxPro DR1,2013-02-21 01:10:00,
2013-02-20 20:15:00,21.7,13.7,30.03,WNW,283,2.0,21.0,71,0.00,,,0.00,0,WxPro DR1,2013-02-21 01:15:00,
2013-02-20 20:20:00,21.6,13.7,30.03,SSW,192,7.0,24.0,71,0.00,,,0.00,0,WxPro DR1,2013-02-21 01:20:00,
2013-02-20 20:25:00,21.5,13.9,30.04,West,260,7.0,24.0,72,0.00,,,0.00,0,WxPro DR1,2013-02-21 01:25:00,
2013-02-20 20:30:00,21.4,13.8,30.04,SW,228,4.0,19.0,72,0.00,,,0.00,0,WxPro DR1,2013-02-21 01:30:00,
2013-02-20 20:35:00,21.3,13.7,30.05,WSW,255,12.0,22.0,72,0.00,,,0.00,0,WxPro DR1,2013-02-21 01:35:00,
2013-02-20 20:40:00,21.2,13.6,30.05,WNW,284,8.0,22.0,72,0.00,,,0.00,0,WxPro DR1,2013-02-21 01:40:00,
2013-02-20 20:45:00,21.2,13.6,30.05,WSW,257,7.0,19.0,72,0.00,,,0.00,0,WxPro DR1,2013-02-21 01:45:00,
2013-02-20 20:50:00,21.1,13.6,30.05,West,275,13.0,20.0,72,0.00,,,0.00,0,WxPro DR1,2013-02-21 01:50:00,
2013-02-20 20:55:00,21.1,13.8,30.05,WSW,257,9.0,26.0,73,0.00,,,0.00,0,WxPro DR1,2013-02-21 01:55:00,
2013-02-20 21:00:00,21.1,13.8,30.05,WSW,249,13.0,26.0,73,0.00,,,0.00,0,WxPro DR1,2013-02-21 02:00:00,
2013-02-20 21:05:00,21.0,13.7,30.05,WSW,240,4.0,22.0,73,0.00,,,0.00,0,WxPro DR1,2013-02-21 02:05:00,
2013-02-20 21:10:00,20.9,13.9,30.05,West,259,11.0,23.0,74,0.00,,,0.00,0,WxPro DR1,2013-02-21 02:10:00,
2013-02-20 21:15:00,20.8,13.8,30.05,West,263,14.0,23.0,74,0.00,,,0.00,0,WxPro DR1,2013-02-21 02:15:00,
2013-02-20 21:20:00,20.7,13.8,30.06,WSW,248,10.0,19.0,74,0.00,,,0.00,0,WxPro DR1,2013-02-21 02:20:00,
2013-02-20 21:25:00,20.7,13.8,30.06,NW,309,9.0,16.0,74,0.00,,,0.00,0,WxPro DR1,2013-02-21 02:25:00,
2013-02-20 21:30:00,20.7,13.8,30.06,SW,236,3.0,21.0,74,0.00,,,0.00,0,WxPro DR1,2013-02-21 02:30:00,
2013-02-20 21:35:00,20.7,13.8,30.05,West,260,13.0,21.0,74,0.00,,,0.00,0,WxPro DR1,2013-02-21 02:35:00,
2013-02-20 21:40:00,20.6,13.7,30.06,West,277,9.0,21.0,74,0.00,,,0.00,0,WxPro DR1,2013-02-21 02:40:00,
2013-02-20 21:45:00,20.6,13.7,30.06,West,271,7.0,21.0,74,0.00,,,0.00,0,WxPro DR1,2013-02-21 02:45:00,
2013-02-20 21:50:00,20.6,13.7,30.05,WSW,250,6.0,21.0,74,0.00,,,0.00,0,WxPro DR1,2013-02-21 02:50:00,
2013-02-20 21:55:00,20.6,13.6,30.05,South,176,3.0,21.0,74,0.00,,,0.00,0,WxPro DR1,2013-02-21 02:55:00,
2013-02-20 22:00:00,20.5,13.6,30.05,SW,219,3.0,20.0,74,0.00,,,0.00,0,WxPro DR1,2013-02-21 03:00:00,
2013-02-20 22:05:00,20.5,13.5,30.05,West,265,4.0,19.0,74,0.00,,,0.00,0,WxPro DR1,2013-02-21 03:05:00,
2013-02-20 22:10:00,20.4,13.8,30.06,WSW,238,4.0,19.0,75,0.00,,,0.00,0,WxPro DR1,2013-02-21 03:10:00,
2013-02-20 22:15:00,20.4,13.8,30.06,West,274,5.0,16.0,75,0.00,,,0.00,0,WxPro DR1,2013-02-21 03:15:00,
2013-02-20 22:20:00,20.4,13.9,30.06,WSW,255,5.0,17.0,75,0.00,,,0.00,0,WxPro DR1,2013-02-21 03:20:00,
2013-02-20 22:25:00,20.3,13.9,30.06,WSW,256,4.0,18.0,76,0.00,,,0.00,0,WxPro DR1,2013-02-21 03:25:00,
2013-02-20 22:30:00,20.2,13.9,30.06,West,260,4.0,22.0,76,0.00,,,0.00,0,WxPro DR1,2013-02-21 03:30:00,
2013-02-20 22:35:00,20.2,13.9,30.06,WSW,255,10.0,22.0,76,0.00,,,0.00,0,WxPro DR1,2013-02-21 03:35:00,
2013-02-20 22:40:00,20.3,13.6,30.06,WSW,238,5.0,22.0,75,0.00,,,0.00,0,WxPro DR1,2013-02-21 03:40:00,
2013-02-20 22:45:00,20.3,13.9,30.06,NW,310,7.0,19.0,76,0.00,,,0.00,0,WxPro DR1,2013-02-21 03:45:00,
2013-02-20 22:50:00,20.3,14.0,30.06,WSW,246,4.0,19.0,76,0.00,,,0.00,0,WxPro DR1,2013-02-21 03:50:00,
2013-02-20 22:55:00,20.3,14.0,30.05,West,260,4.0,18.0,76,0.00,,,0.00,0,WxPro DR1,2013-02-21 03:55:00,
2013-02-20 23:00:00,20.3,14.3,30.04,West,274,4.0,15.0,77,0.00,,,0.00,0,WxPro DR1,2013-02-21 04:00:00,
2013-02-20 23:05:00,20.3,14.3,30.05,West,265,1.0,12.0,77,0.00,,,0.00,0,WxPro DR1,2013-02-21 04:05:00,
2013-02-20 23:10:00,20.2,14.5,30.05,WNW,282,2.0,13.0,78,0.00,,,0.00,0,WxPro DR1,2013-02-21 04:10:00,
2013-02-20 23:15:00,20.2,14.5,30.05,West,269,2.0,13.0,78,0.00,,,0.00,0,WxPro DR1,2013-02-21 04:15:00,
2013-02-20 23:20:00,20.2,14.4,30.05,SSW,213,6.0,11.0,78,0.00,,,0.00,0,WxPro DR1,2013-02-21 04:20:00,
2013-02-20 23:25:00,20.1,14.7,30.05,WSW,238,11.0,14.0,79,0.00,,,0.00,0,WxPro DR1,2013-02-21 04:25:00,
2013-02-20 23:30:00,20.1,14.6,30.05,West,276,4.0,15.0,79,0.00,,,0.00,0,WxPro DR1,2013-02-21 04:30:00,
2013-02-20 23:35:00,20.2,14.7,30.05,WSW,238,6.0,17.0,79,0.00,,,0.00,0,WxPro DR1,2013-02-21 04:35:00,
2013-02-20 23:40:00,20.1,14.7,30.05,WNW,282,8.0,17.0,79,0.00,,,0.00,0,WxPro DR1,2013-02-21 04:40:00,
2013-02-20 23:45:00,20.1,14.9,30.05,WSW,248,3.0,14.0,80,0.00,,,0.00,0,WxPro DR1,2013-02-21 04:45:00,
2013-02-20 23:50:00,20.1,15.2,30.05,SSW,202,4.0,14.0,81,0.00,,,0.00,0,WxPro DR1,2013-02-21 04:50:00,
2013-02-20 23:55:00,20.1,15.2,30.04,WSW,246,6.0,14.0,81,0.00,,,0.00,0,WxPro DR1,2013-02-21 04:55:00,